Terminal Aerodrome Forecast
Issued by NWS Kansas City/Pleasant Hill, MO

Home | Current Version | Previous Version | Text Only | Print | Product List | Glossary On
Versions: 1 2 3 4 5 6 7 8 9 10 11 12 13 14 15 16 17 18
141
FTUS43 KEAX 200400 AAE
TAFMCI
TAF AMD
KMCI 200400Z 2004/2024 10017G29KT P6SM -RA OVC006
      TEMPO 2004/2006 4SM -TSRA BR OVC006CB
     FM200600 08011KT 5SM SHRA VCTS OVC010CB WS020/17030KT
     FM201000 11008KT 5SM SHRA OVC015
     FM201800 26010KT P6SM BKN025=

USA.gov is the U.S. government's official web portal to all federal, state and local government web resources and services.